Wednesday, June 20, 2018, 10:51 AM EDT
Back to Local

KMSV, Monticello, Sullivan County International Airport

Location: Swan Lake, NY, United States Lat: 41.7
Local Time: 10:51 AM EDT (14:51 GMT) Lon: -74.8
Time Zone: US/Eastern Elev: 1404 ft

Show me the last for .
Show Decoded

2018-06-20 09:56 METAR KMSV 201356Z AUTO RMK AO2 SLPNO PWINO FZRANO RVRNO $ =
2018-06-20 08:56 METAR KMSV 201256Z AUTO RMK AO2 SLPNO PWINO FZRANO RVRNO $ =
2018-06-20 07:56 METAR KMSV 201156Z AUTO RMK AO2 SLPNO 6//// 7//// PWINO FZRANO RVRNO $ =
2018-06-20 06:56 METAR KMSV 201056Z AUTO 00000KT 10SM CLR 14/13 A2996 RMK AO2 SLP141 T01390128 =
2018-06-20 05:56 METAR KMSV 200956Z AUTO 00000KT 10SM CLR 13/12 A2996 RMK AO2 SLP138 T01330122 =
2018-06-20 04:56 METAR KMSV 200856Z AUTO 00000KT 10SM CLR 13/12 A2994 RMK AO2 SLP134 T01280117
                 53001 =
2018-06-20 03:56 METAR KMSV 200756Z AUTO 00000KT 10SM CLR 13/12 A2994 RMK AO2 SLP132 T01330117 =
2018-06-20 01:56 METAR KMSV 200556Z AUTO 31003KT 10SM CLR 15/12 A2994 RMK AO2 SLP131 T01500117
                 10217 20144 56006 =
2018-06-20 00:56 METAR KMSV 200456Z AUTO 33003KT 10SM CLR 16/12 A2995 RMK AO2 SLP133 T01610117
                 402610161 =
2018-06-19 23:56 METAR KMSV 200356Z AUTO 33005KT 10SM CLR 17/12 A2995 RMK AO2 SLP133 T01720117 =
2018-06-19 22:56 METAR KMSV 200256Z AUTO 34006KT 10SM CLR 18/12 A2996 RMK AO2 SLP137 T01780117
                 50010 =
2018-06-19 21:56 METAR KMSV 200156Z AUTO 33004KT 10SM CLR 18/12 A2996 RMK AO2 SLP140 T01780117 =
2018-06-19 20:56 METAR KMSV 200056Z AUTO 33005KT 10SM CLR 19/11 A2994 RMK AO2 SLP131 T01890111 =
2018-06-19 19:56 METAR KMSV 192356Z AUTO 33006KT 10SM CLR 22/11 A2993 RMK AO2 SLP125 T02170111
                 10261 20217 53008 =
2018-06-19 18:56 METAR KMSV 192256Z AUTO 35008KT 10SM CLR 23/11 A2991 RMK AO2 SLP119 T02330106 =
2018-06-19 17:56 METAR KMSV 192156Z AUTO 32008KT 10SM CLR 24/11 A2991 RMK AO2 SLP119 T02440106
                 TSNO =
2018-06-19 16:56 METAR KMSV 192056Z AUTO 31010KT 10SM CLR 26/10 A2990 RMK AO2 SLP116 T02560100
                 55001 =
2018-06-19 15:56 METAR KMSV 191956Z AUTO 32008G16KT 10SM CLR 26/09 A2990 RMK AO2 SLP113 T02560094
                 =
2018-06-19 14:56 METAR KMSV 191856Z AUTO 34011G16KT 10SM CLR 26/08 A2990 RMK AO2 SLP114 T02610083
                 =
2018-06-19 13:56 METAR KMSV 191756Z AUTO 31012G20KT 10SM CLR 26/09 A2990 RMK AO2 SLP116 T02610094
                 10261 20206 58002 =
2018-06-19 12:56 METAR KMSV 191656Z AUTO 33012KT 10SM CLR 25/12 A2990 RMK AO2 SLP117 T02500122 =
2018-06-19 11:56 METAR KMSV 191556Z AUTO 34016G22KT 10SM CLR 24/13 A2991 RMK AO2 SLP119 T02440128
                 =
2018-06-19 10:56 METAR KMSV 191456Z AUTO 34011G17KT 10SM CLR 23/14 A2991 RMK AO2 SLP119 T02330139
                 51010 =

Support USWX by starting your Amazon purchase here.